SBCR/CMG METAR and TAF weather

Enter ICAO airport designator
Station Type Date Time Source
SBCR METAR 2021/05/14 21:00 UTC NOAA

SBCR 142100Z VRB02KT 9999 FEW043 29/19 Q1013


Station Type Date Time Source
SBCR Decoded METAR 2021/05/14 21:00 UTC NOAA

Corumba, Brazil (SBCR) 19-05S 057-30W
May 14, 2021 - 05:00 PM EDT / 2021.05.14 2100 UTC
Wind: Variable at 2 MPH (2 KT):0
Visibility: greater than 7 mile(s):0
Sky conditions: mostly clear
Temperature: 84 F (29 C)
Dew Point: 66 F (19 C)
Relative Humidity: 54%
Pressure (altimeter): 29.91 in. Hg (1013 hPa)
ob: SBCR 142100Z VRB02KT 9999 FEW043 29/19 Q1013
cycle: 21

Station Type Date Time Source
SBCR TAF 2021/05/15 06:12 UTC NOAA

TAF TAF SBCR 1506/1606 VRB04KT CAVOK TN20/1509Z TX31/1517Z PROB30 1509/1511 6000 SCT005
BECMG 1511/1513 05005KT
BECMG 1515/1517 13005KT FEW035
TEMPO 1519/1522 24005KT SCT040 FEW045TCU
BECMG 1522/1524 VRB03KT
RMK PGD

Example: see airport list